createdAt,value
2022-09-06T00:01:31.225Z,7.20
2022-09-06T00:04:17.131Z,7.53
2022-09-06T00:07:02.671Z,7.28
2022-09-06T00:09:47.997Z,6.82
2022-09-06T00:12:33.376Z,7.30
2022-09-06T00:15:18.866Z,7.50
2022-09-06T00:18:07.035Z,7.40
2022-09-06T00:20:52.499Z,8.48
2022-09-06T00:23:37.916Z,7.15
2022-09-06T00:26:24.168Z,7.53
2022-09-06T00:29:09.824Z,8.52
2022-09-06T00:31:55.267Z,6.32
2022-09-06T00:34:40.666Z,7.55
2022-09-06T00:37:25.974Z,6.88
2022-09-06T00:40:13.294Z,8.27
2022-09-06T00:42:58.936Z,8.38
2022-09-06T00:45:44.613Z,7.53
2022-09-06T00:48:30.443Z,8.38
2022-09-06T00:51:18.172Z,7.40
2022-09-06T00:54:06.655Z,7.47
2022-09-06T00:56:52.454Z,7.65
2022-09-06T00:59:40.343Z,8.00
2022-09-06T01:02:26.270Z,8.57
2022-09-06T01:05:13.853Z,7.07
2022-09-06T01:08:37.669Z,7.32
2022-09-06T01:11:40.393Z,7.00
2022-09-06T01:14:50.384Z,7.28
2022-09-06T01:18:08.259Z,6.95
2022-09-06T01:21:35.058Z,6.90
2022-09-06T01:24:48.540Z,7.82
2022-09-06T01:28:00.698Z,6.90
2022-09-06T01:30:52.094Z,7.30
2022-09-06T01:33:53.931Z,7.57
2022-09-06T01:37:06.158Z,7.90
2022-09-06T01:39:49.661Z,6.60
2022-09-06T01:42:36.736Z,7.20
2022-09-06T01:45:43.364Z,7.93
2022-09-06T01:48:53.897Z,7.25
2022-09-06T01:52:15.671Z,7.53
2022-09-06T01:55:35.422Z,7.55
2022-09-06T01:58:42.359Z,6.90
2022-09-06T02:01:52.208Z,7.45
2022-09-06T02:05:02.232Z,6.80
2022-09-06T02:07:50.819Z,6.45
2022-09-06T02:10:49.754Z,7.55
2022-09-06T02:13:58.479Z,7.28
2022-09-06T02:16:46.616Z,7.90
2022-09-06T02:19:54.669Z,7.70
2022-09-06T02:22:44.023Z,8.27
2022-09-06T02:25:39.843Z,7.63
2022-09-06T02:28:25.341Z,7.18
2022-09-06T02:31:25.764Z,7.93
2022-09-06T02:34:15.660Z,7.30
2022-09-06T02:37:00.916Z,7.47
2022-09-06T02:39:46.414Z,8.02
2022-09-06T02:42:32.176Z,7.63
2022-09-06T02:45:17.499Z,8.57
2022-09-06T02:48:03.516Z,7.35
2022-09-06T02:50:48.776Z,7.63
2022-09-06T02:53:34.882Z,7.43
2022-09-06T02:56:20.388Z,7.15
2022-09-06T02:59:05.764Z,6.82
2022-09-06T03:01:51.317Z,7.20
2022-09-06T03:04:36.926Z,6.65
2022-09-06T03:07:22.293Z,8.00
2022-09-06T03:10:07.988Z,7.63
2022-09-06T03:12:53.596Z,7.32
2022-09-06T03:15:39.117Z,7.78
2022-09-06T03:18:25.672Z,7.80
2022-09-06T03:21:11.904Z,7.22
2022-09-06T03:23:59.359Z,6.25
2022-09-06T03:26:44.991Z,6.57
2022-09-06T03:29:30.478Z,6.65
2022-09-06T03:32:16.016Z,6.82
2022-09-06T03:35:02.129Z,6.50
2022-09-06T03:37:47.478Z,7.13
2022-09-06T03:40:32.999Z,6.78
2022-09-06T03:43:20.047Z,6.53
2022-09-06T03:46:05.663Z,6.40
2022-09-06T03:48:51.085Z,6.25
2022-09-06T03:51:36.565Z,6.38
2022-09-06T03:54:22.073Z,6.50
2022-09-06T03:57:07.554Z,6.47
2022-09-06T03:59:53.097Z,5.90
2022-09-06T04:02:39.065Z,5.97
2022-09-06T04:05:24.928Z,7.53
2022-09-06T04:08:10.245Z,6.40
2022-09-06T04:10:57.407Z,6.97
2022-09-06T04:13:43.366Z,6.72
2022-09-06T04:16:28.857Z,7.32
2022-09-06T04:19:14.878Z,8.18
2022-09-06T04:22:00.549Z,8.10
2022-09-06T04:24:46.234Z,7.03
2022-09-06T04:27:31.854Z,7.05
2022-09-06T04:30:17.475Z,7.60
2022-09-06T04:33:03.065Z,7.80
2022-09-06T04:35:50.271Z,7.50
2022-09-06T04:38:38.609Z,6.80
2022-09-06T04:41:24.158Z,6.82
2022-09-06T04:44:09.718Z,7.20
2022-09-06T04:47:14.857Z,7.82
2022-09-06T04:50:00.611Z,7.05
2022-09-06T04:52:46.116Z,7.70
2022-09-06T04:55:31.970Z,6.93
2022-09-06T04:58:17.708Z,7.35
2022-09-06T05:01:03.180Z,7.32
2022-09-06T05:03:48.937Z,7.00
2022-09-06T05:06:34.396Z,7.85
2022-09-06T05:09:19.729Z,8.13
2022-09-06T05:12:05.459Z,8.20
2022-09-06T05:14:51.079Z,8.02
2022-09-06T05:17:36.616Z,7.13
2022-09-06T05:20:22.195Z,8.23
2022-09-06T05:23:07.723Z,7.75
2022-09-06T05:25:53.697Z,7.43
2022-09-06T05:28:39.268Z,7.47
2022-09-06T05:31:26.441Z,8.73
2022-09-06T05:34:13.535Z,7.67
2022-09-06T05:36:59.250Z,7.03
2022-09-06T05:39:44.835Z,7.30
2022-09-06T05:42:30.104Z,5.95
2022-09-06T05:45:15.730Z,6.18
2022-09-06T05:48:01.430Z,6.47
2022-09-06T05:50:46.699Z,5.70
2022-09-06T05:53:43.518Z,6.78
2022-09-06T05:56:29.146Z,7.32
2022-09-06T05:59:14.825Z,7.57
2022-09-06T06:02:02.359Z,6.57
2022-09-06T06:04:49.639Z,6.43
2022-09-06T06:07:35.611Z,6.70
2022-09-06T06:10:21.223Z,6.53
2022-09-06T06:13:06.473Z,5.90
2022-09-06T06:15:51.952Z,7.07
2022-09-06T06:18:38.075Z,6.63
2022-09-06T06:21:26.242Z,7.10
2022-09-06T06:24:11.996Z,7.50
2022-09-06T06:26:57.326Z,8.90
2022-09-06T06:29:42.873Z,8.15
2022-09-06T06:32:28.437Z,8.70
2022-09-06T06:35:14.534Z,9.00
2022-09-06T06:38:00.354Z,9.25
2022-09-06T06:40:46.538Z,9.27
2022-09-06T06:43:38.414Z,9.10
2022-09-06T06:46:27.034Z,9.02
2022-09-06T06:49:12.262Z,9.05
2022-09-06T06:51:57.539Z,9.20
2022-09-06T06:54:42.854Z,10.30
2022-09-06T06:57:28.195Z,9.88
2022-09-06T07:00:13.855Z,9.52
2022-09-06T07:03:00.451Z,9.95
2022-09-06T07:08:52.460Z,8.50
2022-09-06T07:11:38.389Z,8.90
2022-09-06T07:14:23.719Z,9.90
2022-09-06T07:17:09.452Z,9.55
2022-09-06T07:26:16.007Z,9.50
2022-09-06T07:29:03.468Z,10.07
2022-09-06T07:34:54.071Z,10.85
2022-09-06T07:37:39.370Z,11.35
2022-09-06T07:40:26.739Z,10.55
2022-09-06T07:43:12.039Z,10.27
2022-09-06T07:45:59.833Z,10.02
2022-09-06T07:48:46.929Z,9.60
2022-09-06T07:51:32.828Z,9.80
2022-09-06T07:54:33.559Z,10.43
2022-09-06T07:57:18.814Z,9.45
2022-09-06T08:00:04.978Z,9.60
2022-09-06T08:02:56.909Z,9.88
2022-09-06T08:09:03.197Z,9.50
2022-09-06T08:11:51.097Z,8.32
2022-09-06T08:14:36.813Z,8.52
2022-09-06T08:17:22.104Z,8.77
2022-09-06T08:20:08.705Z,7.93
2022-09-06T08:22:54.519Z,8.25
2022-09-06T08:25:40.041Z,8.57
2022-09-06T08:28:28.816Z,8.02
2022-09-06T08:31:16.652Z,8.05
2022-09-06T08:34:02.765Z,7.65
2022-09-06T08:36:48.341Z,7.05
2022-09-06T08:39:33.985Z,7.13
2022-09-06T08:42:19.133Z,6.25
2022-09-06T08:45:09.200Z,7.10
2022-09-06T08:47:57.801Z,6.95
2022-09-06T08:50:54.177Z,7.00
2022-09-06T08:53:46.207Z,6.70
2022-09-06T08:57:03.393Z,6.93
2022-09-06T08:59:53.390Z,7.05
2022-09-06T09:02:51.943Z,6.93
2022-09-06T09:05:39.926Z,6.55
2022-09-06T09:08:25.445Z,6.10
2022-09-06T09:11:18.652Z,6.85
2022-09-06T09:14:08.792Z,6.50
2022-09-06T09:16:58.436Z,6.60
2022-09-06T09:19:44.448Z,6.55
2022-09-06T09:22:30.226Z,9.48
2022-09-06T09:25:23.944Z,6.00
2022-09-06T09:28:17.983Z,5.95
2022-09-06T09:31:03.311Z,6.28
2022-09-06T09:33:48.598Z,6.65
2022-09-06T09:36:34.038Z,5.47
2022-09-06T09:39:19.411Z,6.35
2022-09-06T09:42:05.397Z,6.05
2022-09-06T09:44:50.801Z,6.20
2022-09-06T09:47:36.099Z,6.55
2022-09-06T09:50:29.130Z,5.45
2022-09-06T09:53:18.224Z,4.88
2022-09-06T09:56:03.528Z,5.15
2022-09-06T09:58:49.016Z,6.03
2022-09-06T10:01:34.470Z,6.07
2022-09-06T10:04:46.097Z,5.13
2022-09-06T10:07:33.552Z,5.78
2022-09-06T10:10:33.053Z,5.13
2022-09-06T10:13:26.564Z,5.05
2022-09-06T10:16:13.244Z,5.20
2022-09-06T10:18:59.020Z,4.70
2022-09-06T10:21:45.239Z,4.65
2022-09-06T10:25:01.634Z,4.53
2022-09-06T10:28:11.239Z,4.32
2022-09-06T10:31:00.079Z,4.45
2022-09-06T10:34:10.650Z,4.93
2022-09-06T10:37:14.615Z,4.10
2022-09-06T10:40:17.934Z,4.82
2022-09-06T10:43:08.788Z,4.93
2022-09-06T10:46:09.419Z,4.55
2022-09-06T10:48:54.990Z,4.32
2022-09-06T10:51:50.165Z,4.88
2022-09-06T10:54:40.936Z,3.85
2022-09-06T11:00:55.172Z,3.80
2022-09-06T11:04:02.282Z,4.05
2022-09-06T11:06:59.221Z,4.00
2022-09-06T11:09:49.896Z,3.92
2022-09-06T11:12:39.496Z,4.20
2022-09-06T11:15:29.834Z,3.80
2022-09-06T11:18:23.557Z,4.05
2022-09-06T11:21:39.431Z,4.07
2022-09-06T11:24:25.039Z,4.20
2022-09-06T11:27:41.305Z,3.75
2022-09-06T11:30:29.798Z,3.92
2022-09-06T11:33:28.465Z,3.42
2022-09-06T11:36:38.467Z,3.35
2022-09-06T11:42:44.970Z,3.65
2022-09-06T11:45:47.745Z,4.32
2022-09-06T11:48:50.378Z,3.80
2022-09-06T11:51:41.976Z,4.13
2022-09-06T11:54:47.289Z,4.05
2022-09-06T11:57:32.709Z,3.75
2022-09-06T12:00:25.709Z,4.20
2022-09-06T12:07:12.174Z,3.92
2022-09-06T12:10:01.988Z,3.97
2022-09-06T12:12:52.594Z,3.40
2022-09-06T12:15:54.712Z,4.00
2022-09-06T12:18:47.185Z,3.72
2022-09-06T12:21:47.745Z,3.60
2022-09-06T12:24:36.250Z,3.20
2022-09-06T12:27:23.155Z,3.58
2022-09-06T12:30:12.135Z,3.97
2022-09-06T12:33:00.265Z,4.20
2022-09-06T12:36:04.534Z,3.88
2022-09-06T12:39:09.765Z,3.65
2022-09-06T12:41:59.705Z,3.72
2022-09-06T12:44:49.717Z,3.75
2022-09-06T12:47:37.970Z,3.88
2022-09-06T12:50:26.062Z,3.42
2022-09-06T12:53:26.633Z,3.70
2022-09-06T12:56:12.776Z,3.53
2022-09-06T12:59:16.993Z,3.38
2022-09-06T13:02:07.789Z,3.42
2022-09-06T13:05:01.333Z,3.55
2022-09-06T13:07:53.227Z,3.67
2022-09-06T13:10:42.906Z,3.50
2022-09-06T13:13:28.825Z,3.25
2022-09-06T13:16:43.837Z,3.65
2022-09-06T13:19:32.586Z,3.67
2022-09-06T13:22:42.720Z,3.45
2022-09-06T13:25:28.332Z,3.35
2022-09-06T13:28:25.413Z,3.55
2022-09-06T13:31:21.252Z,3.30
2022-09-06T13:34:07.477Z,3.83
2022-09-06T13:36:55.966Z,3.72
2022-09-06T13:39:46.317Z,3.55
2022-09-06T13:42:37.214Z,3.35
2022-09-06T13:45:28.776Z,3.50
2022-09-06T13:48:28.774Z,3.30
2022-09-06T13:51:14.670Z,3.30
2022-09-06T13:54:07.745Z,3.38
2022-09-06T13:56:53.274Z,3.13
2022-09-06T13:59:39.389Z,3.42
2022-09-06T14:02:25.076Z,3.40
2022-09-06T14:05:10.604Z,3.60
2022-09-06T14:07:56.078Z,3.08
2022-09-06T14:10:41.578Z,3.17
2022-09-06T14:13:27.074Z,3.53
2022-09-06T14:16:12.714Z,4.63
2022-09-06T14:18:58.410Z,3.53
2022-09-06T14:21:44.033Z,3.25
2022-09-06T14:24:29.405Z,3.08
2022-09-06T14:27:14.937Z,3.58
2022-09-06T14:30:00.317Z,3.67
2022-09-06T14:32:45.998Z,3.38
2022-09-06T14:35:32.882Z,3.20
2022-09-06T14:38:18.364Z,3.58
2022-09-06T14:41:05.593Z,3.33
2022-09-06T14:46:37.800Z,3.50
2022-09-06T14:49:23.478Z,3.53
2022-09-06T14:52:09.050Z,3.22
2022-09-06T14:54:54.446Z,3.35
2022-09-06T14:57:39.737Z,3.00
2022-09-06T15:00:25.274Z,3.42
2022-09-06T15:03:10.837Z,3.20
2022-09-06T15:05:56.219Z,3.00
2022-09-06T15:08:42.171Z,3.05
2022-09-06T15:11:37.015Z,3.50
2022-09-06T15:14:27.404Z,3.08
2022-09-06T15:17:13.207Z,3.40
2022-09-06T15:19:58.818Z,3.10
2022-09-06T15:22:44.229Z,3.63
2022-09-06T15:25:29.813Z,3.50
2022-09-06T15:28:15.393Z,3.28
2022-09-06T15:31:00.934Z,3.15
2022-09-06T15:33:48.870Z,3.15
2022-09-06T15:36:35.171Z,3.70
2022-09-06T15:39:20.725Z,3.35
2022-09-06T15:42:06.261Z,3.58
2022-09-06T15:44:51.990Z,2.97
2022-09-06T15:47:37.369Z,3.17
2022-09-06T15:50:47.585Z,3.50
2022-09-06T15:53:29.413Z,3.00
2022-09-06T15:56:16.755Z,3.30
2022-09-06T15:59:02.139Z,3.10
2022-09-06T16:01:47.523Z,3.70
2022-09-06T16:04:32.613Z,3.25
2022-09-06T16:07:18.287Z,3.40
2022-09-06T16:10:04.857Z,3.85
2022-09-06T16:12:51.959Z,3.40
2022-09-06T16:15:37.408Z,4.03
2022-09-06T16:18:23.909Z,3.60
2022-09-06T16:21:23.880Z,3.92
2022-09-06T16:24:12.660Z,3.40
2022-09-06T16:26:58.305Z,3.60
2022-09-06T16:29:45.287Z,3.63
2022-09-06T16:32:30.996Z,8.38
2022-09-06T16:35:16.392Z,3.70
2022-09-06T16:38:02.364Z,4.10
2022-09-06T16:40:47.859Z,3.97
2022-09-06T16:43:33.620Z,3.75
2022-09-06T16:46:25.672Z,3.40
2022-09-06T16:49:11.453Z,4.03
2022-09-06T16:51:56.965Z,3.80
2022-09-06T16:54:42.517Z,4.10
2022-09-06T16:57:27.886Z,3.90
2022-09-06T17:00:15.822Z,4.53
2022-09-06T17:03:01.275Z,3.58
2022-09-06T17:05:52.876Z,2.53
2022-09-06T17:08:39.298Z,3.25
2022-09-06T17:11:25.261Z,3.90
2022-09-06T17:14:12.786Z,3.90
2022-09-06T17:17:07.487Z,4.45
2022-09-06T17:19:53.361Z,4.30
2022-09-06T17:22:38.615Z,3.97
2022-09-06T17:25:24.009Z,3.47
2022-09-06T17:28:09.451Z,2.22
2022-09-06T17:30:55.450Z,4.25
2022-09-06T17:33:41.208Z,4.00
2022-09-06T17:36:31.986Z,4.55
2022-09-06T17:39:21.107Z,4.03
2022-09-06T17:42:07.001Z,3.80
2022-09-06T17:44:52.351Z,3.10
2022-09-06T17:47:37.518Z,3.20
2022-09-06T17:50:23.059Z,3.38
2022-09-06T17:53:08.542Z,2.42
2022-09-06T17:55:54.014Z,2.40
2022-09-06T17:58:40.639Z,2.00
2022-09-06T18:01:32.267Z,1.58
2022-09-06T18:04:19.497Z,1.40
2022-09-06T18:07:05.054Z,1.65
2022-09-06T18:09:50.625Z,1.30
2022-09-06T18:12:35.988Z,1.42
2022-09-06T18:15:21.564Z,2.63
2022-09-06T18:18:06.869Z,2.17
2022-09-06T18:20:52.571Z,1.70
2022-09-06T18:23:38.049Z,1.70
2022-09-06T18:26:24.316Z,1.60
2022-09-06T18:29:13.387Z,1.90
2022-09-06T18:31:59.194Z,1.58
2022-09-06T18:34:45.106Z,1.70
2022-09-06T18:37:30.993Z,1.70
2022-09-06T18:40:16.568Z,1.73
2022-09-06T18:43:02.054Z,2.00
2022-09-06T18:45:47.945Z,1.88
2022-09-06T18:48:33.657Z,2.30
2022-09-06T18:51:19.268Z,2.97
2022-09-06T18:54:04.862Z,2.70
2022-09-06T18:56:50.503Z,2.30
2022-09-06T18:59:36.522Z,3.67
2022-09-06T19:02:23.589Z,2.83
2022-09-06T19:05:09.688Z,2.83
2022-09-06T19:07:55.529Z,2.17
2022-09-06T19:10:40.953Z,2.65
2022-09-06T19:13:26.279Z,2.80
2022-09-06T19:16:13.302Z,2.03
2022-09-06T19:19:07.404Z,2.30
2022-09-06T19:21:53.011Z,2.53
2022-09-06T19:24:39.739Z,2.33
2022-09-06T19:27:25.284Z,2.45
2022-09-06T19:30:11.291Z,2.60
2022-09-06T19:32:56.782Z,3.03
2022-09-06T19:35:55.921Z,3.00
2022-09-06T19:39:02.417Z,3.53
2022-09-06T19:41:49.078Z,3.42
2022-09-06T19:44:34.473Z,3.20
2022-09-06T19:47:19.880Z,2.90
2022-09-06T19:50:06.780Z,3.85
2022-09-06T19:52:52.512Z,3.70
2022-09-06T19:55:37.824Z,3.03
2022-09-06T19:58:25.882Z,3.20
2022-09-06T20:01:18.077Z,2.60
2022-09-06T20:04:07.078Z,2.65
2022-09-06T20:06:52.688Z,2.42
2022-09-06T20:09:38.232Z,2.60
2022-09-06T20:12:23.608Z,2.90
2022-09-06T20:15:10.228Z,2.70
2022-09-06T20:17:56.119Z,3.47
2022-09-06T20:20:41.632Z,2.70
2022-09-06T20:23:29.164Z,2.13
2022-09-06T20:26:15.145Z,2.10
2022-09-06T20:29:02.975Z,2.80
2022-09-06T20:31:48.444Z,2.28
2022-09-06T20:34:34.520Z,2.63
2022-09-06T20:37:20.376Z,2.42
2022-09-06T20:40:07.566Z,2.80
2022-09-06T20:42:53.281Z,3.35
2022-09-06T20:45:39.056Z,2.47
2022-09-06T20:48:24.580Z,2.78
2022-09-06T20:51:23.503Z,3.37
2022-09-06T20:54:09.935Z,2.88
2022-09-06T20:56:55.792Z,2.67
2022-09-06T20:59:41.405Z,2.90
2022-09-06T21:02:27.136Z,3.00
2022-09-06T21:05:12.673Z,2.92
2022-09-06T21:07:58.524Z,2.72
2022-09-06T21:10:44.091Z,3.03
2022-09-06T21:13:30.735Z,3.13
2022-09-06T21:16:19.332Z,2.95
2022-09-06T21:19:09.839Z,4.38
2022-09-06T21:21:55.387Z,4.25
2022-09-06T21:24:41.149Z,4.38
2022-09-06T21:27:26.667Z,3.28
2022-09-06T21:30:12.840Z,3.75
2022-09-06T21:32:58.512Z,3.28
2022-09-06T21:35:43.967Z,3.35
2022-09-06T21:38:31.311Z,4.13
2022-09-06T21:41:18.269Z,3.00
2022-09-06T21:44:05.078Z,3.00
2022-09-06T21:46:50.626Z,3.00
2022-09-06T21:49:35.917Z,3.22
2022-09-06T21:52:21.217Z,3.00
2022-09-06T21:55:07.234Z,2.78
2022-09-06T21:57:52.665Z,3.55
2022-09-06T22:00:38.401Z,2.95
2022-09-06T22:03:24.081Z,3.00
2022-09-06T22:06:11.494Z,2.65
2022-09-06T22:08:58.812Z,2.90
2022-09-06T22:11:44.683Z,2.67
2022-09-06T22:14:30.095Z,3.10
2022-09-06T22:17:15.295Z,3.50
2022-09-06T22:20:00.901Z,3.25
2022-09-06T22:22:46.626Z,3.20
2022-09-06T22:25:32.198Z,3.30
2022-09-06T22:28:17.674Z,2.67
2022-09-06T22:31:02.945Z,2.60
2022-09-06T22:33:48.155Z,3.17
2022-09-06T22:36:33.761Z,3.10
2022-09-06T22:39:19.541Z,2.80
2022-09-06T22:42:04.867Z,3.05
2022-09-06T22:44:50.390Z,2.92
2022-09-06T22:47:35.860Z,2.92
2022-09-06T22:50:21.250Z,2.92
2022-09-06T22:53:06.828Z,2.80
2022-09-06T22:55:52.669Z,3.00
2022-09-06T22:58:38.352Z,2.80
2022-09-06T23:01:23.724Z,3.08
2022-09-06T23:04:10.417Z,3.30
2022-09-06T23:06:55.945Z,2.33
2022-09-06T23:09:41.688Z,3.28
2022-09-06T23:12:27.874Z,2.92
2022-09-06T23:15:13.253Z,2.92
2022-09-06T23:17:58.582Z,2.90
2022-09-06T23:20:44.036Z,2.63
2022-09-06T23:23:30.097Z,2.60
2022-09-06T23:26:18.318Z,2.90
2022-09-06T23:29:03.969Z,3.05
2022-09-06T23:31:49.749Z,2.92
2022-09-06T23:34:35.035Z,3.05
2022-09-06T23:37:20.362Z,2.80
2022-09-06T23:40:09.082Z,3.35
2022-09-06T23:42:54.832Z,3.25
2022-09-06T23:45:40.103Z,2.67
2022-09-06T23:48:25.939Z,3.22
2022-09-06T23:51:12.382Z,2.75
2022-09-06T23:53:58.402Z,2.45
2022-09-06T23:56:43.798Z,2.60
2022-09-06T23:59:29.692Z,3.20
